Time;durP1;ratioP1;P1;durP2;ratioP2;P2;SDS_P1;SDS_P2;PMS_P1;PMS_P2;Temp;Humidity;BMP_temperature;BMP_pressure;BME280_temperature;BME280_humidity;BME280_pressure;Samples;Min_cycle;Max_cycle;Signal;HPM_P1;HPM_P2
2022/02/15 00:01:56;;;;;;;4.63;1.70;;;;;;;;;;5048028;28;20068;-59
2022/02/15 00:04:22;;;;;;;3.22;1.38;;;;;;;;;;5057422;28;20139;-59
2022/02/15 00:06:49;;;;;;;4.15;1.50;;;;;;;;;;5048144;28;20045;-61
2022/02/15 00:09:16;;;;;;;3.90;1.52;;;;;;;;;;5041392;28;20083;-59
2022/02/15 00:11:42;;;;;;;5.32;1.67;;;;;;;;;;5038183;28;20111;-60
2022/02/15 00:14:09;;;;;;;5.68;1.65;;;;;;;;;;5043025;28;20049;-61
2022/02/15 00:16:37;;;;;;;4.75;1.77;;;;;;;;;;5048236;28;20060;-61
2022/02/15 00:19:05;;;;;;;3.80;1.80;;;;;;;;;;5042841;28;20049;-61
2022/02/15 00:21:31;;;;;;;5.53;1.80;;;;;;;;;;5048532;28;20053;-61
2022/02/15 00:23:58;;;;;;;3.67;2.00;;;;;;;;;;5048977;28;20061;-61
2022/02/15 00:26:24;;;;;;;3.88;1.48;;;;;;;;;;5042008;28;20098;-61
2022/02/15 00:28:51;;;;;;;4.60;2.00;;;;;;;;;;5064504;28;20118;-61
2022/02/15 00:31:18;;;;;;;4.82;1.70;;;;;;;;;;5041475;28;20053;-60
2022/02/15 00:33:46;;;;;;;5.03;1.98;;;;;;;;;;5047536;28;20048;-61
2022/02/15 00:36:15;;;;;;;5.73;1.87;;;;;;;;;;5041315;28;20080;-61
2022/02/15 00:38:42;;;;;;;5.25;2.08;;;;;;;;;;5047383;28;20063;-61
2022/02/15 00:41:11;;;;;;;5.32;2.08;;;;;;;;;;5047147;28;20131;-61
2022/02/15 00:43:37;;;;;;;;;;;;;;;;;;5047435;28;20044;-58
2022/02/15 00:46:04;;;;;;;5.93;1.70;;;;;;;;;;5049720;28;19978;-59
2022/02/15 00:48:31;;;;;;;6.00;1.88;;;;;;;;;;5066907;28;20036;-58
2022/02/15 00:50:59;;;;;;;8.02;1.90;;;;;;;;;;5052641;28;20118;-59
2022/02/15 00:53:25;;;;;;;4.97;1.93;;;;;;;;;;5058912;28;20075;-59
2022/02/15 00:55:52;;;;;;;6.70;2.05;;;;;;;;;;5059632;28;20364;-59
2022/02/15 00:58:24;;;;;;;11.32;2.33;;;;;;;;;;5066658;28;20094;-58
2022/02/15 01:00:51;;;;;;;4.90;1.80;;;;;;;;;;5057904;28;20061;-59
2022/02/15 01:03:17;;;;;;;11.55;2.25;;;;;;;;;;5046123;28;20076;-61
2022/02/15 01:05:43;;;;;;;10.63;2.30;;;;;;;;;;5041824;28;20067;-58
2022/02/15 01:08:12;;;;;;;6.72;2.10;;;;;;;;;;5045868;28;20059;-59
2022/02/15 01:10:38;;;;;;;8.85;1.80;;;;;;;;;;5046503;28;20053;-61
2022/02/15 01:13:05;;;;;;;5.97;2.33;;;;;;;;;;5041112;28;20072;-58
2022/02/15 01:15:32;;;;;;;11.80;2.25;;;;;;;;;;5054070;28;20068;-58
2022/02/15 01:17:58;;;;;;;4.97;2.00;;;;;;;;;;5058755;28;20048;-58
2022/02/15 01:20:25;;;;;;;6.60;2.25;;;;;;;;;;5067138;28;20113;-59
2022/02/15 01:22:52;;;;;;;6.10;2.05;;;;;;;;;;5047975;28;20049;-58
2022/02/15 01:25:19;;;;;;;7.18;2.28;;;;;;;;;;5046373;28;20060;-61
2022/02/15 01:27:46;;;;;;;8.00;2.58;;;;;;;;;;5049024;28;20060;-58
2022/02/15 01:30:13;;;;;;;3.85;2.00;;;;;;;;;;5055766;28;20049;-59
2022/02/15 01:32:39;;;;;;;6.57;2.25;;;;;;;;;;5046712;28;20060;-60
2022/02/15 01:35:06;;;;;;;5.25;2.20;;;;;;;;;;5067029;28;20102;-60
2022/02/15 01:37:33;;;;;;;6.10;2.40;;;;;;;;;;5060679;28;20067;-58
2022/02/15 01:39:59;;;;;;;7.50;2.35;;;;;;;;;;5066840;28;20094;-61
2022/02/15 01:42:27;;;;;;;9.50;2.65;;;;;;;;;;5057787;28;20093;-60
2022/02/15 01:44:54;;;;;;;10.87;2.20;;;;;;;;;;5046680;28;20076;-58
2022/02/15 01:47:24;;;;;;;6.57;2.00;;;;;;;;;;5042778;28;20323;-59
2022/02/15 01:49:51;;;;;;;5.90;2.00;;;;;;;;;;5027888;28;20053;-61
2022/02/15 01:52:20;;;;;;;6.13;2.33;;;;;;;;;;5029021;28;20056;-62
2022/02/15 01:54:47;;;;;;;4.97;2.00;;;;;;;;;;5059474;28;20059;-59
2022/02/15 01:57:13;;;;;;;7.57;1.80;;;;;;;;;;5066342;28;20052;-57
2022/02/15 01:59:42;;;;;;;4.32;1.80;;;;;;;;;;5059152;28;20074;-58
2022/02/15 02:02:08;;;;;;;9.57;2.33;;;;;;;;;;5068379;28;20057;-59
2022/02/15 02:07:19;;;;;;;3.92;1.63;;;;;;;;;;5070781;28;20052;-58
2022/02/15 02:09:46;;;;;;;7.05;2.05;;;;;;;;;;5051159;28;20045;-57
2022/02/15 02:12:12;;;;;;;6.22;1.88;;;;;;;;;;5064144;28;20068;-58
2022/02/15 02:14:39;;;;;;;6.13;1.95;;;;;;;;;;5064141;28;20114;-58
2022/02/15 02:17:07;;;;;;;5.90;1.80;;;;;;;;;;5070070;28;20060;-59
2022/02/15 02:19:34;;;;;;;9.10;2.13;;;;;;;;;;5063616;28;20063;-60
2022/02/15 02:22:01;;;;;;;8.48;1.50;;;;;;;;;;5069395;28;20053;-59
2022/02/15 02:24:28;;;;;;;4.43;1.27;;;;;;;;;;5065405;28;20056;-59
2022/02/15 02:26:55;;;;;;;5.20;2.33;;;;;;;;;;5070021;28;20059;-60
2022/02/15 02:29:21;;;;;;;4.40;1.58;;;;;;;;;;5063753;28;20082;-58
2022/02/15 02:31:48;;;;;;;9.07;1.98;;;;;;;;;;5069659;28;20117;-61
2022/02/15 02:34:15;;;;;;;3.40;1.33;;;;;;;;;;5063020;28;20052;-59
2022/02/15 02:36:45;;;;;;;5.57;2.00;;;;;;;;;;5068930;28;20052;-59
2022/02/15 02:39:13;;;;;;;5.05;1.50;;;;;;;;;;5069466;28;20052;-59
2022/02/15 02:41:39;;;;;;;3.47;1.20;;;;;;;;;;5063196;28;20059;-59
2022/02/15 02:44:06;;;;;;;4.03;1.55;;;;;;;;;;5069477;28;20048;-59
2022/02/15 02:46:33;;;;;;;5.45;1.40;;;;;;;;;;5047321;28;20060;-59
2022/02/15 02:49:00;;;;;;;4.57;1.13;;;;;;;;;;5050249;28;20147;-60
2022/02/15 02:51:26;;;;;;;6.75;1.50;;;;;;;;;;5068461;28;20113;-59
2022/02/15 02:53:53;;;;;;;4.55;1.17;;;;;;;;;;5080467;28;20070;-58
2022/02/15 02:56:21;;;;;;;4.13;1.50;;;;;;;;;;5072765;28;20076;-59
2022/02/15 02:58:48;;;;;;;6.38;1.23;;;;;;;;;;5069954;28;20052;-60
2022/02/15 03:01:14;;;;;;;3.40;1.38;;;;;;;;;;5061408;28;20135;-59
2022/02/15 03:03:41;;;;;;;2.35;1.02;;;;;;;;;;5070143;28;20056;-59
2022/02/15 03:06:08;;;;;;;4.40;1.50;;;;;;;;;;5062408;28;20120;-60
2022/02/15 03:08:35;;;;;;;3.03;1.20;;;;;;;;;;5084251;28;20056;-60
2022/02/15 03:11:01;;;;;;;7.07;1.40;;;;;;;;;;5042892;28;20102;-59
2022/02/15 03:13:29;;;;;;;5.35;1.33;;;;;;;;;;5048867;28;20094;-58
2022/02/15 03:15:55;;;;;;;3.53;1.23;;;;;;;;;;5075669;28;20053;-58
2022/02/15 03:18:23;;;;;;;6.32;1.20;;;;;;;;;;5049785;28;20041;-60
2022/02/15 03:20:50;;;;;;;5.05;1.30;;;;;;;;;;5050431;28;20045;-60
2022/02/15 03:23:16;;;;;;;6.13;1.40;;;;;;;;;;5025328;28;20050;-59
2022/02/15 03:25:43;;;;;;;5.68;1.50;;;;;;;;;;5030272;28;20049;-61
2022/02/15 03:28:09;;;;;;;9.10;1.40;;;;;;;;;;5039371;28;20045;-60
2022/02/15 03:30:37;;;;;;;3.35;1.50;;;;;;;;;;5035716;28;20045;-59
2022/02/15 03:33:04;;;;;;;6.33;1.63;;;;;;;;;;5023879;28;20119;-59
2022/02/15 03:35:30;;;;;;;3.67;1.33;;;;;;;;;;5028985;28;20292;-58
2022/02/15 03:37:57;;;;;;;4.03;1.70;;;;;;;;;;5022793;28;20061;-59
2022/02/15 03:43:04;;;;;;;5.53;1.33;;;;;;;;;;5028423;28;20057;-57
2022/02/15 03:43:10;;;;;;;9.18;1.50;;;;;;;;;;5034962;28;20060;-59
2022/02/15 03:45:39;;;;;;;4.93;1.50;;;;;;;;;;5048539;28;20045;-59
2022/02/15 03:48:05;;;;;;;3.60;1.55;;;;;;;;;;5041665;28;20060;-58
2022/02/15 03:50:34;;;;;;;8.10;1.92;;;;;;;;;;5048225;28;20055;-58
2022/02/15 03:53:01;;;;;;;;;;;;;;;;;;5036726;28;20057;-58
2022/02/15 03:55:27;;;;;;;4.45;1.60;;;;;;;;;;5028153;28;19979;-60
2022/02/15 03:57:54;;;;;;;5.28;1.77;;;;;;;;;;5026070;28;20049;-58
2022/02/15 04:00:21;;;;;;;4.97;1.52;;;;;;;;;;5048704;28;20067;-59
2022/02/15 04:02:49;;;;;;;5.65;1.90;;;;;;;;;;5041970;28;20053;-59
2022/02/15 04:05:15;;;;;;;5.88;1.70;;;;;;;;;;5047942;28;20053;-58
2022/02/15 04:07:42;;;;;;;5.00;1.88;;;;;;;;;;5047504;28;20076;-59
2022/02/15 04:10:11;;;;;;;4.93;1.60;;;;;;;;;;5041489;28;20056;-61
2022/02/15 04:12:38;;;;;;;7.47;2.20;;;;;;;;;;5031168;28;20073;-59
2022/02/15 04:15:04;;;;;;;6.95;1.95;;;;;;;;;;5041670;28;20069;-59
2022/02/15 04:17:31;;;;;;;6.95;2.25;;;;;;;;;;5043155;28;20057;-59
2022/02/15 04:19:59;;;;;;;8.80;2.47;;;;;;;;;;5042744;28;20135;-58
2022/02/15 04:22:25;;;;;;;4.93;2.08;;;;;;;;;;5048520;28;20053;-58
2022/02/15 04:24:52;;;;;;;9.52;2.40;;;;;;;;;;5041969;28;20060;-58
2022/02/15 04:27:18;;;;;;;5.03;1.88;;;;;;;;;;5047415;28;20053;-58
2022/02/15 04:29:45;;;;;;;10.90;2.78;;;;;;;;;;5041282;28;20052;-57
2022/02/15 04:32:12;;;;;;;6.97;2.20;;;;;;;;;;5047221;28;20049;-58
2022/02/15 04:34:39;;;;;;;6.70;2.22;;;;;;;;;;5035550;28;20099;-59
2022/02/15 04:37:07;;;;;;;8.65;2.35;;;;;;;;;;5027541;28;20053;-59
2022/02/15 04:39:34;;;;;;;12.75;3.00;;;;;;;;;;5026425;28;20106;-59
2022/02/15 04:42:00;;;;;;;7.80;2.65;;;;;;;;;;5047214;28;20049;-59
2022/02/15 04:44:27;;;;;;;11.02;3.13;;;;;;;;;;5041320;28;20063;-60
2022/02/15 04:46:53;;;;;;;10.02;3.33;;;;;;;;;;5047393;28;20053;-59
2022/02/15 04:49:20;;;;;;;6.43;2.33;;;;;;;;;;5047812;28;20081;-61
2022/02/15 04:51:47;;;;;;;9.68;3.45;;;;;;;;;;5042953;28;20076;-61
2022/02/15 04:54:17;;;;;;;8.38;3.15;;;;;;;;;;5048890;28;20068;-62
2022/02/15 04:56:43;;;;;;;11.80;3.00;;;;;;;;;;5041103;28;20049;-58
2022/02/15 04:59:10;;;;;;;7.70;2.78;;;;;;;;;;5047206;28;20063;-58
2022/02/15 05:01:37;;;;;;;11.50;4.25;;;;;;;;;;5041909;28;20147;-59
2022/02/15 05:04:03;;;;;;;10.93;3.78;;;;;;;;;;5050663;28;20135;-61
2022/02/15 05:06:30;;;;;;;14.35;3.92;;;;;;;;;;5030930;28;20060;-59
2022/02/15 05:08:56;;;;;;;9.23;3.72;;;;;;;;;;5030576;28;20061;-58
2022/02/15 05:11:24;;;;;;;17.42;4.15;;;;;;;;;;5024388;28;20110;-59
2022/02/15 05:13:51;;;;;;;6.47;2.53;;;;;;;;;;5030406;28;20053;-61
2022/02/15 05:16:17;;;;;;;13.48;4.25;;;;;;;;;;5023937;28;20048;-61
2022/02/15 05:18:44;;;;;;;9.70;4.00;;;;;;;;;;5029858;28;20044;-59
2022/02/15 05:21:10;;;;;;;10.45;3.83;;;;;;;;;;5024147;28;20077;-59
2022/02/15 05:23:37;;;;;;;11.93;4.25;;;;;;;;;;5029405;28;20049;-59
2022/02/15 05:26:04;;;;;;;10.70;4.43;;;;;;;;;;5024202;28;20056;-59
2022/02/15 05:28:34;;;;;;;13.13;4.70;;;;;;;;;;5029639;28;20076;-58
2022/02/15 05:31:02;;;;;;;7.78;3.22;;;;;;;;;;5026357;28;20061;-59
2022/02/15 05:33:29;;;;;;;13.63;4.95;;;;;;;;;;5028353;28;20052;-59
2022/02/15 05:35:55;;;;;;;13.13;5.25;;;;;;;;;;5028927;28;20060;-59
2022/02/15 05:38:22;;;;;;;11.48;4.15;;;;;;;;;;5023936;28;20116;-58
2022/02/15 05:40:49;;;;;;;12.23;4.75;;;;;;;;;;5028432;28;20045;-58
2022/02/15 05:43:15;;;;;;;15.88;5.72;;;;;;;;;;5023628;28;20136;-61
2022/02/15 05:45:44;;;;;;;13.73;3.97;;;;;;;;;;5029779;28;20151;-58
2022/02/15 05:48:11;;;;;;;12.70;4.03;;;;;;;;;;5024997;28;20071;-58
2022/02/15 05:50:52;;;;;;;14.20;4.68;;;;;;;;;;5030842;28;20052;-58
2022/02/15 05:53:19;;;;;;;14.07;4.93;;;;;;;;;;5038163;28;20068;-59
2022/02/15 05:55:48;;;;;;;12.00;4.65;;;;;;;;;;5049767;28;20092;-58
2022/02/15 05:58:16;;;;;;;13.35;3.65;;;;;;;;;;5024409;28;20060;-58
2022/02/15 06:00:44;;;;;;;14.63;5.20;;;;;;;;;;5029429;28;20075;-59
2022/02/15 06:05:50;;;;;;;12.23;5.57;;;;;;;;;;5078531;28;20071;-61
2022/02/15 06:08:17;;;;;;;13.95;4.25;;;;;;;;;;5037259;28;20103;-58
2022/02/15 06:10:46;;;;;;;16.88;4.53;;;;;;;;;;5044009;28;20048;-59
2022/02/15 06:13:12;;;;;;;11.85;4.03;;;;;;;;;;5039669;28;20064;-61
2022/02/15 06:15:39;;;;;;;9.35;3.75;;;;;;;;;;5044296;28;20057;-60
2022/02/15 06:18:07;;;;;;;17.02;4.90;;;;;;;;;;5038953;28;20053;-59
2022/02/15 06:20:34;;;;;;;17.27;4.37;;;;;;;;;;5045261;28;20064;-61
2022/02/15 06:23:00;;;;;;;12.38;4.47;;;;;;;;;;5044770;28;20306;-60
2022/02/15 06:25:29;;;;;;;11.95;4.25;;;;;;;;;;5054190;28;20064;-62
2022/02/15 06:27:56;;;;;;;10.00;3.85;;;;;;;;;;5046040;28;20103;-59
2022/02/15 06:30:23;;;;;;;12.00;4.70;;;;;;;;;;5039444;28;20110;-59
2022/02/15 06:32:50;;;;;;;15.43;4.88;;;;;;;;;;5053860;28;20078;-60
2022/02/15 06:35:18;;;;;;;16.95;6.63;;;;;;;;;;5047900;28;20076;-60
2022/02/15 06:37:45;;;;;;;20.13;7.30;;;;;;;;;;5044465;28;20080;-61
2022/02/15 06:40:13;;;;;;;14.15;4.82;;;;;;;;;;5068261;28;20053;-64
2022/02/15 06:42:40;;;;;;;14.82;5.68;;;;;;;;;;5078374;28;20133;-61
2022/02/15 06:45:07;;;;;;;15.57;4.55;;;;;;;;;;5040581;28;20091;-62
2022/02/15 06:47:33;;;;;;;15.90;4.68;;;;;;;;;;5046063;28;20056;-61
2022/02/15 06:50:01;;;;;;;12.35;4.85;;;;;;;;;;5042543;28;20044;-60
2022/02/15 06:52:30;;;;;;;15.07;5.05;;;;;;;;;;5049747;28;20072;-61
2022/02/15 06:54:56;;;;;;;14.15;4.70;;;;;;;;;;5043388;28;20067;-61
2022/02/15 06:57:23;;;;;;;14.52;5.28;;;;;;;;;;5048782;28;20063;-61
2022/02/15 06:59:50;;;;;;;18.45;5.15;;;;;;;;;;5043230;28;20084;-58
2022/02/15 07:02:18;;;;;;;14.90;5.03;;;;;;;;;;5040244;28;20053;-61
2022/02/15 07:04:45;;;;;;;15.93;4.13;;;;;;;;;;5015838;28;20124;-61
2022/02/15 07:07:13;;;;;;;11.43;3.72;;;;;;;;;;5028174;28;20111;-61
2022/02/15 07:09:41;;;;;;;9.60;4.13;;;;;;;;;;5045323;28;20168;-62
2022/02/15 07:12:08;;;;;;;10.57;4.10;;;;;;;;;;5025266;28;20056;-62
2022/02/15 07:14:35;;;;;;;11.20;3.63;;;;;;;;;;5028729;28;20049;-59
2022/02/15 07:17:01;;;;;;;14.27;3.63;;;;;;;;;;5022540;28;20053;-61
2022/02/15 07:19:33;;;;;;;12.75;3.90;;;;;;;;;;5028956;28;20131;-61
2022/02/15 07:22:00;;;;;;;15.05;3.72;;;;;;;;;;5023401;28;20056;-61
2022/02/15 07:24:26;;;;;;;16.27;4.00;;;;;;;;;;5029400;28;20330;-61
2022/02/15 07:26:55;;;;;;;13.85;3.83;;;;;;;;;;5022708;28;20057;-59
2022/02/15 07:29:22;;;;;;;14.30;4.00;;;;;;;;;;5029032;28;20053;-60
2022/02/15 07:31:50;;;;;;;13.73;4.27;;;;;;;;;;5023340;28;20056;-61
2022/02/15 07:34:17;;;;;;;10.75;3.58;;;;;;;;;;5028922;28;20049;-61
2022/02/15 07:36:44;;;;;;;9.52;3.92;;;;;;;;;;5023334;28;20067;-61
2022/02/15 07:39:12;;;;;;;16.95;4.85;;;;;;;;;;5028805;28;20072;-61
2022/02/15 07:41:39;;;;;;;12.10;3.70;;;;;;;;;;5023208;28;20053;-61
2022/02/15 07:44:07;;;;;;;10.35;3.67;;;;;;;;;;5011238;28;20061;-62
2022/02/15 07:46:33;;;;;;;13.82;3.55;;;;;;;;;;5007161;28;20139;-61
2022/02/15 07:49:01;;;;;;;14.25;3.83;;;;;;;;;;5013360;28;20072;-61
2022/02/15 07:51:28;;;;;;;9.75;2.95;;;;;;;;;;5009355;28;20128;-62
2022/02/15 07:53:54;;;;;;;11.52;3.67;;;;;;;;;;5029623;28;20053;-62
2022/02/15 07:56:21;;;;;;;13.63;3.58;;;;;;;;;;5030253;28;20049;-62
2022/02/15 07:58:47;;;;;;;20.40;3.80;;;;;;;;;;5023355;28;20057;-60
2022/02/15 08:01:15;;;;;;;12.27;2.88;;;;;;;;;;5011839;28;20056;-58
2022/02/15 08:03:42;;;;;;;10.37;3.40;;;;;;;;;;5039247;28;20068;-59
2022/02/15 08:06:08;;;;;;;19.67;3.67;;;;;;;;;;5048147;28;20291;-60
2022/02/15 08:08:35;;;;;;;13.55;3.35;;;;;;;;;;5042139;28;20071;-60
2022/02/15 08:11:02;;;;;;;12.05;3.60;;;;;;;;;;5048121;28;20053;-60
2022/02/15 08:13:34;;;;;;;11.55;3.38;;;;;;;;;;5042133;28;20064;-61
2022/02/15 08:16:01;;;;;;;13.50;3.95;;;;;;;;;;5056481;28;20053;-59
2022/02/15 08:18:31;;;;;;;10.35;3.42;;;;;;;;;;5068387;28;20159;-61
2022/02/15 08:20:58;;;;;;;12.25;3.50;;;;;;;;;;5048036;28;20122;-60
2022/02/15 08:23:25;;;;;;;14.73;3.42;;;;;;;;;;5040987;28;20160;-61
2022/02/15 08:25:53;;;;;;;11.50;2.90;;;;;;;;;;5052949;28;20056;-62
2022/02/15 08:28:21;;;;;;;10.57;2.70;;;;;;;;;;5061634;28;20091;-62
2022/02/15 08:30:47;;;;;;;11.07;2.67;;;;;;;;;;5061036;28;20057;-61
2022/02/15 08:33:14;;;;;;;10.18;2.63;;;;;;;;;;5039133;28;20064;-60
2022/02/15 08:35:42;;;;;;;10.75;2.55;;;;;;;;;;5041918;28;20144;-62
2022/02/15 08:38:08;;;;;;;11.18;2.10;;;;;;;;;;5044327;28;20053;-60
2022/02/15 08:40:35;;;;;;;9.38;2.10;;;;;;;;;;5043331;28;20133;-60
2022/02/15 08:43:01;;;;;;;9.30;2.03;;;;;;;;;;5033681;28;20101;-59
2022/02/15 08:45:30;;;;;;;20.85;2.13;;;;;;;;;;5039099;28;20074;-61
2022/02/15 08:47:56;;;;;;;10.27;2.15;;;;;;;;;;5044885;28;20056;-60
2022/02/15 08:50:23;;;;;;;9.30;2.40;;;;;;;;;;5041889;28;20064;-62
2022/02/15 08:52:51;;;;;;;10.07;3.10;;;;;;;;;;5047756;28;20045;-60
2022/02/15 08:55:18;;;;;;;12.77;2.20;;;;;;;;;;5041256;28;20060;-61
2022/02/15 08:57:44;;;;;;;7.45;1.40;;;;;;;;;;5047192;28;20060;-59
2022/02/15 09:00:14;;;;;;;12.10;1.50;;;;;;;;;;5041109;28;20048;-61
2022/02/15 09:02:41;;;;;;;12.52;1.90;;;;;;;;;;5044689;28;20084;-61
2022/02/15 09:05:09;;;;;;;4.38;1.40;;;;;;;;;;5038517;28;20045;-59
2022/02/15 09:07:35;;;;;;;6.90;1.77;;;;;;;;;;5043780;28;20139;-61
2022/02/15 09:10:04;;;;;;;22.60;2.20;;;;;;;;;;5038364;28;20057;-61
2022/02/15 09:12:31;;;;;;;11.25;1.67;;;;;;;;;;5044411;28;20060;-62
2022/02/15 09:14:57;;;;;;;4.03;1.30;;;;;;;;;;5039420;28;20052;-61
2022/02/15 09:17:24;;;;;;;11.70;1.42;;;;;;;;;;5044084;28;20064;-61
2022/02/15 09:19:51;;;;;;;11.38;1.52;;;;;;;;;;5044549;28;20103;-62
2022/02/15 09:22:18;;;;;;;5.32;1.20;;;;;;;;;;5038893;28;20076;-62
2022/02/15 09:24:45;;;;;;;8.57;1.80;;;;;;;;;;5046637;28;20055;-61
2022/02/15 09:27:13;;;;;;;4.45;1.35;;;;;;;;;;5039217;28;20053;-61
2022/02/15 09:29:40;;;;;;;7.60;1.65;;;;;;;;;;5046202;28;20045;-59
2022/02/15 09:32:06;;;;;;;10.35;1.70;;;;;;;;;;5039441;28;20064;-61
2022/02/15 09:34:33;;;;;;;6.00;1.27;;;;;;;;;;5045085;28;20053;-60
2022/02/15 09:36:59;;;;;;;7.30;1.60;;;;;;;;;;5038903;28;20045;-59
2022/02/15 09:39:32;;;;;;;15.07;2.25;;;;;;;;;;5042257;28;20056;-59
2022/02/15 09:41:58;;;;;;;10.63;1.92;;;;;;;;;;5039121;28;20102;-59
2022/02/15 09:44:26;;;;;;;8.73;1.60;;;;;;;;;;5045165;28;20057;-61
2022/02/15 09:46:53;;;;;;;6.93;1.50;;;;;;;;;;5048001;28;20136;-61
2022/02/15 09:52:07;;;;;;;5.65;1.50;;;;;;;;;;5039561;28;20049;-59
2022/02/15 09:54:34;;;;;;;5.78;1.55;;;;;;;;;;5043983;28;20110;-60
2022/02/15 09:57:00;;;;;;;7.50;1.67;;;;;;;;;;5037004;28;20049;-62
2022/02/15 09:59:29;;;;;;;16.63;1.63;;;;;;;;;;5041593;28;20064;-60
2022/02/15 10:01:56;;;;;;;9.98;1.63;;;;;;;;;;5037592;28;20151;-61
2022/02/15 10:04:33;;;;;;;7.07;1.30;;;;;;;;;;5045064;28;20136;-60
2022/02/15 10:07:00;;;;;;;9.85;1.63;;;;;;;;;;5038465;28;20066;-61
2022/02/15 10:09:28;;;;;;;6.40;1.48;;;;;;;;;;5044961;28;20132;-59
2022/02/15 10:12:01;;;;;;;4.78;1.60;;;;;;;;;;5041926;28;20056;-59
2022/02/15 10:14:29;;;;;;;5.68;1.17;;;;;;;;;;5038851;28;20053;-59
2022/02/15 10:16:56;;;;;;;7.22;1.35;;;;;;;;;;5044592;28;20057;-59
2022/02/15 10:19:26;;;;;;;5.50;1.10;;;;;;;;;;5039164;28;20099;-61
2022/02/15 10:21:54;;;;;;;10.43;1.45;;;;;;;;;;5055184;28;20091;-60
2022/02/15 10:24:21;;;;;;;6.65;1.13;;;;;;;;;;5042403;28;20049;-58
2022/02/15 10:26:54;;;;;;;11.48;1.45;;;;;;;;;;5049482;28;20058;-59
2022/02/15 10:29:21;;;;;;;3.47;1.25;;;;;;;;;;5042296;28;20049;-62
2022/02/15 10:31:49;;;;;;;6.30;1.30;;;;;;;;;;5046846;28;20053;-59
2022/02/15 10:34:16;;;;;;;10.07;2.30;;;;;;;;;;5042719;28;20060;-60
2022/02/15 10:36:42;;;;;;;9.60;1.45;;;;;;;;;;5046479;28;20303;-59
2022/02/15 10:39:13;;;;;;;7.10;1.73;;;;;;;;;;5043047;28;20057;-59
2022/02/15 10:41:40;;;;;;;8.07;1.30;;;;;;;;;;5039306;28;20059;-60
2022/02/15 10:44:08;;;;;;;9.98;1.60;;;;;;;;;;5043055;28;20045;-59
2022/02/15 10:46:36;;;;;;;5.95;1.45;;;;;;;;;;5048115;28;20061;-59
2022/02/15 10:49:08;;;;;;;9.32;1.13;;;;;;;;;;5037305;28;20060;-61
2022/02/15 10:51:37;;;;;;;7.18;1.33;;;;;;;;;;5048752;28;20049;-61
2022/02/15 10:54:06;;;;;;;5.35;1.02;;;;;;;;;;5043708;28;20040;-61
2022/02/15 10:56:33;;;;;;;7.25;1.30;;;;;;;;;;5048845;28;20044;-60
2022/02/15 10:59:03;;;;;;;9.90;1.42;;;;;;;;;;5044443;28;20056;-62
2022/02/15 11:01:31;;;;;;;9.00;1.48;;;;;;;;;;5048088;28;20126;-59
2022/02/15 11:03:58;;;;;;;6.93;1.40;;;;;;;;;;5044832;28;20095;-59
2022/02/15 11:06:26;;;;;;;4.63;1.13;;;;;;;;;;5045323;28;20057;-59
2022/02/15 11:08:53;;;;;;;11.18;0.98;;;;;;;;;;5046162;28;20049;-60
2022/02/15 11:11:22;;;;;;;5.63;1.02;;;;;;;;;;5041098;28;20080;-60
2022/02/15 11:13:48;;;;;;;5.38;0.80;;;;;;;;;;5047365;28;20052;-60
2022/02/15 11:16:16;;;;;;;2.47;0.52;;;;;;;;;;5042675;28;20057;-61
2022/02/15 11:18:44;;;;;;;4.55;0.90;;;;;;;;;;5047941;28;20056;-60
2022/02/15 11:21:24;;;;;;;2.23;0.73;;;;;;;;;;5043187;28;20053;-58
2022/02/15 11:23:58;;;;;;;5.22;1.00;;;;;;;;;;5045050;28;20073;-62
2022/02/15 11:26:31;;;;;;;8.30;0.88;;;;;;;;;;5041309;28;20061;-62
2022/02/15 11:28:57;;;;;;;4.28;0.65;;;;;;;;;;5036758;28;20053;-62
2022/02/15 11:31:25;;;;;;;6.32;0.90;;;;;;;;;;5043401;28;20049;-62
2022/02/15 11:33:53;;;;;;;4.47;0.70;;;;;;;;;;5046888;28;20040;-61
2022/02/15 11:36:23;;;;;;;7.05;1.23;;;;;;;;;;5040639;28;20072;-62
2022/02/15 11:38:52;;;;;;;8.25;0.95;;;;;;;;;;5046909;28;20063;-61
2022/02/15 11:41:20;;;;;;;3.55;0.68;;;;;;;;;;5041480;28;20109;-62
2022/02/15 11:43:53;;;;;;;4.40;0.90;;;;;;;;;;5047636;28;20065;-62
2022/02/15 11:46:27;;;;;;;7.85;1.08;;;;;;;;;;5041083;28;20307;-62
2022/02/15 11:48:56;;;;;;;3.17;0.90;;;;;;;;;;5047111;28;20080;-63
2022/02/15 11:51:25;;;;;;;2.67;0.52;;;;;;;;;;5040520;28;20044;-62
2022/02/15 11:53:51;;;;;;;;;;;;;;;;;;5045344;28;20052;-61
2022/02/15 11:56:17;;;;;;;5.70;0.77;;;;;;;;;;5042780;28;19928;-61
2022/02/15 11:58:46;;;;;;;4.22;1.30;;;;;;;;;;5045903;28;20052;-62
2022/02/15 12:01:23;;;;;;;10.32;2.00;;;;;;;;;;5042745;28;20095;-61
2022/02/15 12:03:50;;;;;;;6.35;1.08;;;;;;;;;;5039921;28;20080;-59
2022/02/15 12:06:17;;;;;;;6.75;1.05;;;;;;;;;;5039454;28;20049;-60
2022/02/15 12:08:53;;;;;;;6.32;1.00;;;;;;;;;;5041011;28;20126;-59
2022/02/15 12:11:29;;;;;;;4.43;0.90;;;;;;;;;;5047373;28;20049;-60
2022/02/15 12:13:57;;;;;;;4.18;0.80;;;;;;;;;;5040161;28;20061;-61
2022/02/15 12:16:24;;;;;;;6.43;1.40;;;;;;;;;;5045886;28;20064;-59
2022/02/15 12:18:51;;;;;;;4.97;1.00;;;;;;;;;;5041123;28;20562;-60
2022/02/15 12:21:17;;;;;;;1.38;0.70;;;;;;;;;;5046394;28;20114;-59
2022/02/15 12:23:47;;;;;;;3.10;0.98;;;;;;;;;;5040143;28;20056;-61
2022/02/15 12:26:13;;;;;;;4.60;1.10;;;;;;;;;;5045586;28;20056;-60
2022/02/15 12:28:40;;;;;;;2.47;0.77;;;;;;;;;;5039493;28;20057;-61
2022/02/15 12:31:13;;;;;;;3.92;1.00;;;;;;;;;;5044472;28;20060;-61
2022/02/15 12:33:40;;;;;;;3.05;1.00;;;;;;;;;;5042746;28;20135;-59
2022/02/15 12:36:07;;;;;;;3.78;0.98;;;;;;;;;;5047028;28;20107;-60
2022/02/15 12:38:38;;;;;;;3.25;1.17;;;;;;;;;;5038458;28;20163;-60
2022/02/15 12:41:13;;;;;;;4.38;1.48;;;;;;;;;;5043874;28;20079;-59
2022/02/15 12:43:39;;;;;;;2.17;0.77;;;;;;;;;;5041475;28;20148;-59
2022/02/15 12:46:07;;;;;;;3.63;1.00;;;;;;;;;;5044047;28;20144;-61
2022/02/15 12:48:34;;;;;;;1.42;0.60;;;;;;;;;;5039175;28;20057;-61
2022/02/15 12:51:01;;;;;;;1.10;0.60;;;;;;;;;;5045313;28;20102;-62
2022/02/15 12:53:27;;;;;;;5.15;1.00;;;;;;;;;;5042421;28;20041;-61
2022/02/15 12:55:54;;;;;;;9.02;1.02;;;;;;;;;;5048125;28;20049;-63
2022/02/15 12:58:21;;;;;;;2.67;0.70;;;;;;;;;;5042065;28;20048;-59
2022/02/15 13:00:48;;;;;;;1.83;0.73;;;;;;;;;;5035227;28;20051;-60
2022/02/15 13:03:19;;;;;;;5.70;1.10;;;;;;;;;;5065738;28;20056;-60
2022/02/15 13:05:46;;;;;;;6.88;1.15;;;;;;;;;;5036461;28;20049;-60
2022/02/15 13:08:17;;;;;;;1.83;0.65;;;;;;;;;;5046282;28;20099;-61
2022/02/15 13:10:54;;;;;;;5.32;0.93;;;;;;;;;;5039854;28;20060;-59
2022/02/15 13:13:24;;;;;;;5.70;1.13;;;;;;;;;;5042728;28;20064;-60
2022/02/15 13:15:53;;;;;;;4.38;1.08;;;;;;;;;;5039122;28;20059;-59
2022/02/15 13:18:20;;;;;;;;;;;;;;;;;;5045804;28;20049;-59
2022/02/15 13:20:50;;;;;;;3.75;1.05;;;;;;;;;;5040209;28;19935;-59
2022/02/15 13:23:17;;;;;;;2.35;1.02;;;;;;;;;;5044916;28;20141;-62
2022/02/15 13:25:45;;;;;;;10.60;1.88;;;;;;;;;;5040425;28;20063;-60
2022/02/15 13:28:12;;;;;;;3.58;1.40;;;;;;;;;;5045311;28;20059;-59
2022/02/15 13:30:39;;;;;;;3.05;1.00;;;;;;;;;;5039339;28;20091;-59
2022/02/15 13:33:06;;;;;;;4.82;0.98;;;;;;;;;;5043218;28;20049;-59
2022/02/15 13:35:34;;;;;;;7.03;1.15;;;;;;;;;;5039257;28;20064;-60
2022/02/15 13:38:02;;;;;;;4.90;1.15;;;;;;;;;;5044587;28;20068;-60
2022/02/15 13:40:31;;;;;;;6.28;0.90;;;;;;;;;;5038605;28;20098;-59
2022/02/15 13:42:58;;;;;;;7.50;1.17;;;;;;;;;;5043482;28;20057;-61
2022/02/15 13:45:25;;;;;;;8.65;0.90;;;;;;;;;;5039614;28;20061;-59
2022/02/15 13:47:52;;;;;;;6.38;0.85;;;;;;;;;;5041874;28;20061;-61
2022/02/15 13:50:19;;;;;;;6.72;1.05;;;;;;;;;;5044700;28;20102;-62
2022/02/15 13:52:45;;;;;;;4.00;1.08;;;;;;;;;;5039827;28;20053;-62
2022/02/15 13:55:13;;;;;;;4.05;0.90;;;;;;;;;;5044129;28;20053;-60
2022/02/15 13:57:41;;;;;;;4.15;0.80;;;;;;;;;;5039926;28;20115;-61
2022/02/15 14:00:11;;;;;;;5.47;0.80;;;;;;;;;;5047945;28;20057;-58
2022/02/15 14:02:39;;;;;;;3.63;0.82;;;;;;;;;;5043420;28;20060;-59
2022/02/15 14:05:06;;;;;;;3.47;0.73;;;;;;;;;;5048163;28;20053;-61
2022/02/15 14:07:34;;;;;;;7.47;1.13;;;;;;;;;;5035281;28;20048;-59
2022/02/15 14:10:01;;;;;;;7.93;1.23;;;;;;;;;;5048796;28;20114;-61
2022/02/15 14:12:29;;;;;;;12.40;1.15;;;;;;;;;;5043543;28;20053;-59
2022/02/15 14:14:58;;;;;;;10.02;1.50;;;;;;;;;;5049119;28;20055;-59
2022/02/15 14:17:39;;;;;;;7.53;0.88;;;;;;;;;;5042996;28;20049;-61
2022/02/15 14:20:07;;;;;;;2.50;1.02;;;;;;;;;;5065034;28;20048;-61
2022/02/15 14:22:34;;;;;;;;;;;;;;;;;;5044685;28;20052;-61
2022/02/15 14:25:00;;;;;;;11.18;1.30;;;;;;;;;;5048843;28;19925;-60
2022/02/15 14:27:29;;;;;;;5.72;1.40;;;;;;;;;;5041411;28;20057;-61
2022/02/15 14:29:57;;;;;;;2.70;0.90;;;;;;;;;;5042257;28;20053;-62
2022/02/15 14:35:05;;;;;;;5.03;1.13;;;;;;;;;;5049323;28;20047;-60
2022/02/15 14:37:32;;;;;;;5.10;1.15;;;;;;;;;;5057315;28;20045;-60
2022/02/15 14:39:59;;;;;;;8.48;1.30;;;;;;;;;;5068822;28;20048;-61
2022/02/15 14:42:26;;;;;;;4.55;1.13;;;;;;;;;;5066058;28;20130;-59
2022/02/15 14:44:54;;;;;;;5.97;1.30;;;;;;;;;;5058358;28;20052;-60
2022/02/15 14:47:20;;;;;;;6.77;1.00;;;;;;;;;;5062500;28;20085;-64
2022/02/15 14:49:48;;;;;;;8.15;1.10;;;;;;;;;;5061559;28;20060;-61
2022/02/15 14:52:15;;;;;;;10.52;1.50;;;;;;;;;;5067297;28;20102;-61
2022/02/15 14:54:42;;;;;;;5.78;1.00;;;;;;;;;;5060674;28;20159;-61